DLH98 ELLX-LIMC
Flight info
| Callsign | DLH98 |
|---|---|
| Flight time | 0h 59m |
| Altitude | 33000 |
| Route | GTQ2Q/24 GTQ DCT DEVDI DCT RIPUS DCT GERSA DCT SOSON DCT DEGAD/N0382F180 Z424 BASGO/N0387F190 Z424 RIXUV |
| Aircraft | A320/M-SDE3FGHIRWY/LB1 |
Departure
| Time | 2026-05-05 18:29 |
|---|---|
| Airport | Luxembourg-Findel International Airport (ELLX) |
Arrival
| Time | 2026-05-05 19:28 |
|---|---|
| Airport | Milan Malpensa International Airport (LIMC) |
| Time | Latitude | Longitude | Altitude | Speed | Heading |
|---|---|---|---|---|---|
| 2026-05-05 17:47 | 49.63408 | 6.21850 | 1196 ft | 0 kts | 329° |
| 2026-05-05 18:15 | 49.63407 | 6.21852 | 1223 ft | 2 kts | 329° |
| 2026-05-05 18:15 | 49.63388 | 6.21872 | 1195 ft | 4 kts | 286° |
| 2026-05-05 18:16 | 49.63392 | 6.21897 | 1195 ft | 4 kts | 233° |
| 2026-05-05 18:16 | 49.63397 | 6.21908 | 1195 ft | 0 kts | 233° |
| 2026-05-05 18:21 | 49.63397 | 6.21907 | 1195 ft | 1 kts | 233° |
| 2026-05-05 18:21 | 49.63363 | 6.21832 | 1195 ft | 16 kts | 238° |
| 2026-05-05 18:21 | 49.63286 | 6.21685 | 1195 ft | 19 kts | 239° |
| 2026-05-05 18:21 | 49.63248 | 6.21530 | 1195 ft | 12 kts | 207° |
| 2026-05-05 18:22 | 49.63180 | 6.21575 | 1196 ft | 10 kts | 148° |
| 2026-05-05 18:22 | 49.63122 | 6.21627 | 1200 ft | 9 kts | 155° |
| 2026-05-05 18:22 | 49.63075 | 6.21617 | 1197 ft | 6 kts | 216° |
| 2026-05-05 18:22 | 49.63055 | 6.21575 | 1197 ft | 4 kts | 241° |
| 2026-05-05 18:23 | 49.63032 | 6.21507 | 1197 ft | 19 kts | 243° |
| 2026-05-05 18:23 | 49.62960 | 6.21271 | 1197 ft | 26 kts | 245° |
| 2026-05-05 18:23 | 49.62883 | 6.21018 | 1196 ft | 27 kts | 244° |
| 2026-05-05 18:23 | 49.62798 | 6.20761 | 1196 ft | 27 kts | 233° |
| 2026-05-05 18:24 | 49.62661 | 6.20571 | 1197 ft | 27 kts | 225° |
| 2026-05-05 18:24 | 49.62539 | 6.20361 | 1198 ft | 26 kts | 230° |
| 2026-05-05 18:24 | 49.62439 | 6.20125 | 1198 ft | 27 kts | 240° |
| 2026-05-05 18:24 | 49.62345 | 6.19873 | 1198 ft | 26 kts | 240° |
| 2026-05-05 18:25 | 49.62263 | 6.19655 | 1198 ft | 21 kts | 239° |
| 2026-05-05 18:25 | 49.62218 | 6.19559 | 1198 ft | 15 kts | 214° |
| 2026-05-05 18:25 | 49.62173 | 6.19565 | 1200 ft | 0 kts | 148° |
| 2026-05-05 18:26 | 49.62168 | 6.19570 | 1201 ft | 4 kts | 147° |
| 2026-05-05 18:26 | 49.62148 | 6.19589 | 1203 ft | 1 kts | 148° |
| 2026-05-05 18:27 | 49.62112 | 6.19627 | 1206 ft | 14 kts | 137° |
| 2026-05-05 18:27 | 49.62114 | 6.19726 | 1208 ft | 0 kts | 58° |
| 2026-05-05 18:28 | 49.62118 | 6.19735 | 1208 ft | 13 kts | 58° |
| 2026-05-05 18:28 | 49.62293 | 6.20206 | 1211 ft | 85 kts | 60° |
| 2026-05-05 18:28 | 49.62687 | 6.21266 | 1218 ft | 140 kts | 60° |
| 2026-05-05 18:29 | 49.63244 | 6.22783 | 1298 ft | 176 kts | 60° |
| 2026-05-05 18:29 | 49.63869 | 6.24405 | 1933 ft | 177 kts | 60° |
| 2026-05-05 18:29 | 49.64514 | 6.26061 | 2544 ft | 182 kts | 61° |
| 2026-05-05 18:29 | 49.65041 | 6.27860 | 3088 ft | 186 kts | 80° |
| 2026-05-05 18:30 | 49.65094 | 6.29915 | 3353 ft | 206 kts | 102° |
| 2026-05-05 18:30 | 49.64577 | 6.32030 | 3769 ft | 221 kts | 126° |
| 2026-05-05 18:30 | 49.63430 | 6.33718 | 4151 ft | 241 kts | 147° |
| 2026-05-05 18:30 | 49.61918 | 6.35084 | 4032 ft | 257 kts | 154° |
| 2026-05-05 18:31 | 49.60308 | 6.36322 | 4019 ft | 259 kts | 155° |
| 2026-05-05 18:31 | 49.58687 | 6.37546 | 4010 ft | 260 kts | 155° |
| 2026-05-05 18:31 | 49.57074 | 6.38804 | 4009 ft | 260 kts | 154° |
| 2026-05-05 18:31 | 49.55458 | 6.40063 | 4009 ft | 260 kts | 157° |
| 2026-05-05 18:32 | 49.53811 | 6.41211 | 4010 ft | 260 kts | 158° |
| 2026-05-05 18:32 | 49.52154 | 6.42338 | 4012 ft | 260 kts | 158° |
| 2026-05-05 18:32 | 49.50495 | 6.43464 | 4013 ft | 260 kts | 158° |
| 2026-05-05 18:32 | 49.48838 | 6.44595 | 4015 ft | 260 kts | 158° |
| 2026-05-05 18:33 | 49.47182 | 6.45730 | 4013 ft | 260 kts | 158° |
| 2026-05-05 18:33 | 49.45526 | 6.46867 | 4051 ft | 263 kts | 158° |
| 2026-05-05 18:33 | 49.43853 | 6.48018 | 4869 ft | 264 kts | 158° |
| 2026-05-05 18:33 | 49.42167 | 6.49184 | 5758 ft | 268 kts | 158° |
| 2026-05-05 18:34 | 49.40479 | 6.50351 | 6589 ft | 271 kts | 158° |
| 2026-05-05 18:34 | 49.38747 | 6.51543 | 7413 ft | 274 kts | 159° |
| 2026-05-05 18:34 | 49.36986 | 6.52711 | 8233 ft | 277 kts | 159° |
| 2026-05-05 18:34 | 49.35198 | 6.53871 | 9061 ft | 281 kts | 160° |
| 2026-05-05 18:35 | 49.33386 | 6.55033 | 9869 ft | 284 kts | 160° |
| 2026-05-05 18:35 | 49.31551 | 6.56205 | 10593 ft | 288 kts | 160° |
| 2026-05-05 18:35 | 49.29695 | 6.57392 | 11337 ft | 290 kts | 160° |
| 2026-05-05 18:35 | 49.27820 | 6.58601 | 12076 ft | 294 kts | 160° |
| 2026-05-05 18:36 | 49.25927 | 6.59822 | 12804 ft | 297 kts | 160° |
| 2026-05-05 18:36 | 49.24013 | 6.61059 | 13531 ft | 300 kts | 160° |
| 2026-05-05 18:36 | 49.22076 | 6.62311 | 14181 ft | 303 kts | 160° |
| 2026-05-05 18:36 | 49.20078 | 6.63594 | 14528 ft | 318 kts | 160° |
| 2026-05-05 18:37 | 49.17998 | 6.64925 | 14927 ft | 329 kts | 160° |
| 2026-05-05 18:37 | 49.15907 | 6.66268 | 15514 ft | 332 kts | 160° |
| 2026-05-05 18:37 | 49.13767 | 6.67646 | 16152 ft | 335 kts | 159° |
| 2026-05-05 18:37 | 49.11610 | 6.69037 | 16800 ft | 338 kts | 159° |
| 2026-05-05 18:38 | 49.09437 | 6.70436 | 17415 ft | 341 kts | 159° |
| 2026-05-05 18:38 | 49.07337 | 6.71782 | 18025 ft | 342 kts | 159° |
| 2026-05-05 18:38 | 49.05129 | 6.73196 | 18550 ft | 345 kts | 159° |
| 2026-05-05 18:38 | 49.02900 | 6.74617 | 19072 ft | 349 kts | 159° |
| 2026-05-05 18:39 | 49.00650 | 6.76045 | 19624 ft | 351 kts | 159° |
| 2026-05-05 18:39 | 48.98387 | 6.77484 | 20158 ft | 354 kts | 159° |
| 2026-05-05 18:39 | 48.96094 | 6.78946 | 20544 ft | 362 kts | 159° |
| 2026-05-05 18:39 | 48.93729 | 6.80451 | 20676 ft | 376 kts | 159° |
| 2026-05-05 18:40 | 48.91268 | 6.82018 | 20816 ft | 390 kts | 159° |
| 2026-05-05 18:40 | 48.88774 | 6.83606 | 21150 ft | 396 kts | 158° |
| 2026-05-05 18:40 | 48.86225 | 6.85231 | 21621 ft | 398 kts | 158° |
| 2026-05-05 18:40 | 48.83662 | 6.86860 | 22140 ft | 400 kts | 158° |
| 2026-05-05 18:41 | 48.81089 | 6.88488 | 22623 ft | 402 kts | 158° |
| 2026-05-05 18:41 | 48.78600 | 6.90059 | 23075 ft | 403 kts | 158° |
| 2026-05-05 18:41 | 48.75906 | 6.91754 | 23519 ft | 405 kts | 158° |
| 2026-05-05 18:41 | 48.73296 | 6.93392 | 23875 ft | 407 kts | 158° |
| 2026-05-05 18:42 | 48.70668 | 6.95048 | 24220 ft | 409 kts | 158° |
| 2026-05-05 18:42 | 48.68029 | 6.96713 | 24572 ft | 411 kts | 158° |
| 2026-05-05 18:42 | 48.65379 | 6.98385 | 24888 ft | 414 kts | 158° |
| 2026-05-05 18:42 | 48.62715 | 7.00061 | 25221 ft | 416 kts | 158° |
| 2026-05-05 18:43 | 48.60039 | 7.01741 | 25552 ft | 418 kts | 158° |
| 2026-05-05 18:43 | 48.57349 | 7.03425 | 25874 ft | 419 kts | 158° |
| 2026-05-05 18:43 | 48.54647 | 7.05113 | 26202 ft | 421 kts | 158° |
| 2026-05-05 18:43 | 48.51934 | 7.06809 | 26520 ft | 423 kts | 158° |
| 2026-05-05 18:44 | 48.49210 | 7.08511 | 26826 ft | 425 kts | 158° |
| 2026-05-05 18:44 | 48.46468 | 7.10222 | 27111 ft | 427 kts | 158° |
| 2026-05-05 18:44 | 48.43720 | 7.11939 | 27398 ft | 428 kts | 158° |
| 2026-05-05 18:44 | 48.40960 | 7.13659 | 27709 ft | 430 kts | 158° |
| 2026-05-05 18:45 | 48.38184 | 7.15384 | 27970 ft | 432 kts | 158° |
| 2026-05-05 18:45 | 48.35401 | 7.17114 | 28227 ft | 434 kts | 158° |
| 2026-05-05 18:45 | 48.32644 | 7.18824 | 28477 ft | 435 kts | 158° |
| 2026-05-05 18:45 | 48.29833 | 7.20563 | 28715 ft | 437 kts | 158° |
| 2026-05-05 18:46 | 48.27018 | 7.22304 | 28937 ft | 439 kts | 158° |
| 2026-05-05 18:46 | 48.24158 | 7.24070 | 29253 ft | 438 kts | 158° |
| 2026-05-05 18:46 | 48.21342 | 7.25809 | 29592 ft | 437 kts | 158° |
| 2026-05-05 18:46 | 48.18528 | 7.27542 | 29910 ft | 437 kts | 159° |
| 2026-05-05 18:47 | 48.15715 | 7.29272 | 30164 ft | 437 kts | 159° |
| 2026-05-05 18:47 | 48.12904 | 7.31003 | 30429 ft | 437 kts | 159° |
| 2026-05-05 18:47 | 48.10098 | 7.32730 | 30699 ft | 436 kts | 159° |
| 2026-05-05 18:47 | 48.07285 | 7.34456 | 30963 ft | 436 kts | 159° |
| 2026-05-05 18:48 | 48.04516 | 7.36147 | 31231 ft | 435 kts | 159° |
| 2026-05-05 18:48 | 48.01678 | 7.37876 | 31505 ft | 435 kts | 159° |
| 2026-05-05 18:48 | 47.98913 | 7.39563 | 31775 ft | 435 kts | 159° |
| 2026-05-05 18:48 | 47.96112 | 7.41274 | 32026 ft | 435 kts | 160° |
| 2026-05-05 18:49 | 47.93277 | 7.43005 | 32291 ft | 435 kts | 160° |
| 2026-05-05 18:49 | 47.90477 | 7.44712 | 32552 ft | 435 kts | 160° |
| 2026-05-05 18:49 | 47.87680 | 7.46418 | 32790 ft | 435 kts | 160° |
| 2026-05-05 18:49 | 47.84876 | 7.48125 | 32863 ft | 435 kts | 160° |
| 2026-05-05 18:50 | 47.79262 | 7.51526 | 32874 ft | 436 kts | 160° |
| 2026-05-05 18:50 | 47.73989 | 7.56045 | 32871 ft | 444 kts | 143° |
| 2026-05-05 18:51 | 47.69850 | 7.62936 | 32873 ft | 452 kts | 130° |
| 2026-05-05 18:51 | 47.66128 | 7.70461 | 32870 ft | 452 kts | 130° |
| 2026-05-05 18:52 | 47.62411 | 7.77927 | 32873 ft | 452 kts | 130° |
| 2026-05-05 18:52 | 47.58675 | 7.85414 | 32879 ft | 452 kts | 130° |
| 2026-05-05 18:53 | 47.54927 | 7.92897 | 32882 ft | 452 kts | 130° |
| 2026-05-05 18:53 | 47.51292 | 8.00146 | 32885 ft | 452 kts | 131° |
| 2026-05-05 18:54 | 47.47533 | 8.07627 | 32888 ft | 453 kts | 131° |
| 2026-05-05 18:54 | 47.43762 | 8.15105 | 32889 ft | 454 kts | 131° |
| 2026-05-05 18:55 | 47.39985 | 8.22583 | 32896 ft | 454 kts | 131° |
| 2026-05-05 18:55 | 47.36224 | 8.29997 | 32898 ft | 454 kts | 131° |
| 2026-05-05 18:56 | 47.32428 | 8.37460 | 32884 ft | 455 kts | 131° |
| 2026-05-05 18:56 | 47.28376 | 8.44554 | 32875 ft | 448 kts | 143° |
| 2026-05-05 18:57 | 47.23186 | 8.49307 | 32885 ft | 435 kts | 163° |
| 2026-05-05 18:57 | 47.17371 | 8.51248 | 32893 ft | 426 kts | 178° |
| 2026-05-05 18:58 | 47.11468 | 8.52097 | 32910 ft | 426 kts | 178° |
| 2026-05-05 18:58 | 47.05561 | 8.52967 | 32921 ft | 426 kts | 179° |
| 2026-05-05 18:59 | 46.99666 | 8.53829 | 32938 ft | 425 kts | 179° |
| 2026-05-05 18:59 | 46.93787 | 8.54679 | 32946 ft | 424 kts | 179° |
| 2026-05-05 19:00 | 46.87901 | 8.55515 | 32967 ft | 431 kts | 179° |
| 2026-05-05 19:00 | 46.81920 | 8.56367 | 32959 ft | 431 kts | 179° |
| 2026-05-05 19:01 | 46.75952 | 8.57235 | 32972 ft | 429 kts | 180° |
| 2026-05-05 19:01 | 46.70010 | 8.58094 | 32974 ft | 428 kts | 180° |
| 2026-05-05 19:02 | 46.64118 | 8.58938 | 32984 ft | 428 kts | 180° |
| 2026-05-05 19:02 | 46.58200 | 8.59773 | 33008 ft | 427 kts | 181° |
| 2026-05-05 19:03 | 46.52294 | 8.60601 | 33009 ft | 426 kts | 181° |
| 2026-05-05 19:03 | 46.46608 | 8.61103 | 32774 ft | 408 kts | 188° |
| 2026-05-05 19:04 | 46.43803 | 8.60558 | 31573 ft | 409 kts | 198° |
| 2026-05-05 19:04 | 46.41096 | 8.59256 | 30360 ft | 410 kts | 207° |
| 2026-05-05 19:04 | 46.38564 | 8.57303 | 29037 ft | 414 kts | 214° |
| 2026-05-05 19:04 | 46.36114 | 8.55066 | 27708 ft | 418 kts | 214° |
| 2026-05-05 19:05 | 46.33643 | 8.52846 | 26550 ft | 419 kts | 213° |
| 2026-05-05 19:05 | 46.31997 | 8.51387 | 25814 ft | 420 kts | 212° |
| 2026-05-05 19:05 | 46.29356 | 8.49563 | 24719 ft | 423 kts | 202° |
| 2026-05-05 19:05 | 46.26515 | 8.48401 | 23648 ft | 427 kts | 193° |
| 2026-05-05 19:06 | 46.23546 | 8.47942 | 22409 ft | 432 kts | 184° |
| 2026-05-05 19:06 | 46.19567 | 8.48354 | 21357 ft | 432 kts | 177° |
| 2026-05-05 19:06 | 46.16574 | 8.48793 | 21121 ft | 432 kts | 178° |
| 2026-05-05 19:06 | 46.14551 | 8.49079 | 20987 ft | 432 kts | 178° |
| 2026-05-05 19:07 | 46.11575 | 8.49600 | 20998 ft | 426 kts | 173° |
| 2026-05-05 19:07 | 46.08780 | 8.50726 | 20920 ft | 410 kts | 164° |
| 2026-05-05 19:07 | 46.06193 | 8.52129 | 20803 ft | 393 kts | 163° |
| 2026-05-05 19:07 | 46.03681 | 8.53500 | 20651 ft | 379 kts | 163° |
| 2026-05-05 19:08 | 46.01261 | 8.54820 | 20530 ft | 365 kts | 164° |
| 2026-05-05 19:08 | 45.98922 | 8.56088 | 20409 ft | 353 kts | 164° |
| 2026-05-05 19:08 | 45.96634 | 8.57316 | 19930 ft | 352 kts | 164° |
| 2026-05-05 19:08 | 45.94333 | 8.58537 | 19367 ft | 353 kts | 164° |
| 2026-05-05 19:09 | 45.92019 | 8.59765 | 18804 ft | 355 kts | 164° |
| 2026-05-05 19:09 | 45.89744 | 8.61181 | 18258 ft | 360 kts | 154° |
| 2026-05-05 19:09 | 45.87705 | 8.63315 | 17642 ft | 366 kts | 145° |
| 2026-05-05 19:09 | 45.85722 | 8.65618 | 17033 ft | 367 kts | 145° |
| 2026-05-05 19:10 | 45.83755 | 8.67908 | 16428 ft | 368 kts | 145° |
| 2026-05-05 19:10 | 45.81767 | 8.70221 | 15818 ft | 368 kts | 144° |
| 2026-05-05 19:10 | 45.79774 | 8.72533 | 15242 ft | 368 kts | 144° |
| 2026-05-05 19:10 | 45.77779 | 8.74841 | 14677 ft | 368 kts | 144° |
| 2026-05-05 19:11 | 45.75705 | 8.76963 | 14119 ft | 364 kts | 154° |
| 2026-05-05 19:11 | 45.73465 | 8.78703 | 13218 ft | 371 kts | 155° |
| 2026-05-05 19:11 | 45.71152 | 8.80477 | 12022 ft | 383 kts | 154° |
| 2026-05-05 19:11 | 45.68780 | 8.82289 | 11082 ft | 388 kts | 154° |
| 2026-05-05 19:12 | 45.66403 | 8.84108 | 10388 ft | 386 kts | 154° |
| 2026-05-05 19:12 | 45.64052 | 8.85910 | 9698 ft | 382 kts | 153° |
| 2026-05-05 19:12 | 45.61679 | 8.87562 | 8950 ft | 376 kts | 162° |
| 2026-05-05 19:12 | 45.59162 | 8.88413 | 8221 ft | 370 kts | 169° |
| 2026-05-05 19:13 | 45.56653 | 8.89120 | 7471 ft | 366 kts | 170° |
| 2026-05-05 19:13 | 45.54154 | 8.89797 | 6737 ft | 363 kts | 170° |
| 2026-05-05 19:13 | 45.51693 | 8.90455 | 6203 ft | 354 kts | 170° |
| 2026-05-05 19:13 | 45.49362 | 8.91079 | 6027 ft | 336 kts | 170° |
| 2026-05-05 19:14 | 45.47143 | 8.91677 | 6016 ft | 313 kts | 170° |
| 2026-05-05 19:14 | 45.45069 | 8.92240 | 6019 ft | 293 kts | 170° |
| 2026-05-05 19:14 | 45.43134 | 8.92765 | 6019 ft | 274 kts | 170° |
| 2026-05-05 19:14 | 45.41291 | 8.93266 | 6021 ft | 267 kts | 170° |
| 2026-05-05 19:15 | 45.39477 | 8.93756 | 6020 ft | 265 kts | 170° |
| 2026-05-05 19:15 | 45.37702 | 8.94237 | 6012 ft | 251 kts | 171° |
| 2026-05-05 19:15 | 45.36047 | 8.94687 | 6017 ft | 234 kts | 171° |
| 2026-05-05 19:15 | 45.34463 | 8.95117 | 6019 ft | 231 kts | 171° |
| 2026-05-05 19:16 | 45.32891 | 8.95540 | 6019 ft | 230 kts | 171° |
| 2026-05-05 19:16 | 45.31320 | 8.95960 | 6016 ft | 230 kts | 171° |
| 2026-05-05 19:16 | 45.29748 | 8.96382 | 6016 ft | 230 kts | 171° |
| 2026-05-05 19:16 | 45.28172 | 8.96807 | 6005 ft | 230 kts | 171° |
| 2026-05-05 19:17 | 45.26610 | 8.97232 | 6002 ft | 223 kts | 171° |
| 2026-05-05 19:17 | 45.25142 | 8.97633 | 6002 ft | 210 kts | 171° |
| 2026-05-05 19:17 | 45.23729 | 8.98016 | 6006 ft | 209 kts | 171° |
| 2026-05-05 19:17 | 45.22301 | 8.98401 | 6006 ft | 208 kts | 171° |
| 2026-05-05 19:18 | 45.20876 | 8.98783 | 6005 ft | 208 kts | 171° |
| 2026-05-05 19:18 | 45.19451 | 8.99162 | 6007 ft | 208 kts | 173° |
| 2026-05-05 19:18 | 45.18041 | 8.98961 | 6004 ft | 206 kts | 206° |
| 2026-05-05 19:18 | 45.16995 | 8.97619 | 6007 ft | 208 kts | 241° |
| 2026-05-05 19:19 | 45.16711 | 8.95620 | 6008 ft | 214 kts | 276° |
| 2026-05-05 19:19 | 45.17311 | 8.93677 | 6013 ft | 222 kts | 306° |
| 2026-05-05 19:19 | 45.18364 | 8.92053 | 6008 ft | 226 kts | 313° |
| 2026-05-05 19:19 | 45.19543 | 8.90429 | 6007 ft | 243 kts | 313° |
| 2026-05-05 19:20 | 45.20773 | 8.88757 | 6004 ft | 246 kts | 314° |
| 2026-05-05 19:20 | 45.22011 | 8.87068 | 6008 ft | 246 kts | 314° |
| 2026-05-05 19:20 | 45.23238 | 8.85376 | 5690 ft | 249 kts | 314° |
| 2026-05-05 19:20 | 45.24521 | 8.83593 | 4886 ft | 267 kts | 314° |
| 2026-05-05 19:21 | 45.26074 | 8.82071 | 4220 ft | 276 kts | 343° |
| 2026-05-05 19:21 | 45.27902 | 8.82030 | 4055 ft | 263 kts | 16° |
| 2026-05-05 19:21 | 45.29607 | 8.82725 | 4018 ft | 246 kts | 7° |
| 2026-05-05 19:21 | 45.31217 | 8.82358 | 4029 ft | 233 kts | 338° |
| 2026-05-05 19:22 | 45.32759 | 8.81649 | 4032 ft | 234 kts | 347° |
| 2026-05-05 19:22 | 45.34352 | 8.81204 | 4033 ft | 233 kts | 349° |
| 2026-05-05 19:22 | 45.35947 | 8.80785 | 4033 ft | 233 kts | 349° |
| 2026-05-05 19:22 | 45.37541 | 8.80353 | 4034 ft | 233 kts | 349° |
| 2026-05-05 19:23 | 45.39134 | 8.79917 | 4032 ft | 233 kts | 349° |
| 2026-05-05 19:23 | 45.40731 | 8.79480 | 4034 ft | 234 kts | 349° |
| 2026-05-05 19:23 | 45.42306 | 8.79048 | 4026 ft | 224 kts | 349° |
| 2026-05-05 19:23 | 45.43784 | 8.78644 | 4036 ft | 207 kts | 349° |
| 2026-05-05 19:24 | 45.45138 | 8.78272 | 3965 ft | 190 kts | 349° |
| 2026-05-05 19:24 | 45.46418 | 8.77921 | 3762 ft | 185 kts | 349° |
| 2026-05-05 19:24 | 45.47678 | 8.77575 | 3535 ft | 184 kts | 349° |
| 2026-05-05 19:24 | 45.48934 | 8.77230 | 3314 ft | 182 kts | 349° |
| 2026-05-05 19:25 | 45.50179 | 8.76888 | 3056 ft | 181 kts | 350° |
| 2026-05-05 19:25 | 45.51415 | 8.76548 | 2810 ft | 180 kts | 350° |
| 2026-05-05 19:25 | 45.52631 | 8.76214 | 2564 ft | 173 kts | 351° |
| 2026-05-05 19:25 | 45.53749 | 8.75905 | 2342 ft | 157 kts | 351° |
| 2026-05-05 19:26 | 45.54793 | 8.75618 | 2135 ft | 150 kts | 351° |
| 2026-05-05 19:26 | 45.55807 | 8.75339 | 1935 ft | 147 kts | 351° |
| 2026-05-05 19:26 | 45.56803 | 8.75065 | 1720 ft | 145 kts | 351° |
| 2026-05-05 19:26 | 45.57786 | 8.74794 | 1511 ft | 143 kts | 350° |
| 2026-05-05 19:27 | 45.58755 | 8.74527 | 1318 ft | 140 kts | 350° |
| 2026-05-05 19:27 | 45.59708 | 8.74264 | 1119 ft | 139 kts | 348° |
| 2026-05-05 19:27 | 45.60651 | 8.74006 | 954 ft | 138 kts | 348° |
| 2026-05-05 19:27 | 45.61587 | 8.73760 | 782 ft | 137 kts | 348° |
| 2026-05-05 19:28 | 45.62505 | 8.73516 | 739 ft | 127 kts | 346° |
| 2026-05-05 19:28 | 45.63252 | 8.73289 | 738 ft | 88 kts | 348° |
| 2026-05-05 19:28 | 45.63682 | 8.73139 | 747 ft | 43 kts | 333° |
| 2026-05-05 19:28 | 45.63828 | 8.72894 | 748 ft | 30 kts | 305° |
| 2026-05-05 19:29 | 45.63919 | 8.72697 | 753 ft | 22 kts | 294° |
| 2026-05-05 19:29 | 45.63888 | 8.72590 | 752 ft | 10 kts | 182° |
| 2026-05-05 19:29 | 45.63817 | 8.72605 | 752 ft | 12 kts | 168° |
| 2026-05-05 19:29 | 45.63710 | 8.72634 | 748 ft | 16 kts | 169° |
| 2026-05-05 19:30 | 45.63597 | 8.72665 | 749 ft | 16 kts | 168° |
| 2026-05-05 19:30 | 45.63508 | 8.72692 | 747 ft | 12 kts | 168° |
| 2026-05-05 19:30 | 45.63432 | 8.72690 | 746 ft | 11 kts | 211° |
| 2026-05-05 19:30 | 45.63403 | 8.72602 | 743 ft | 9 kts | 257° |
| 2026-05-05 19:31 | 45.63393 | 8.72528 | 747 ft | 6 kts | 259° |
| 2026-05-05 19:31 | 45.63387 | 8.72474 | 744 ft | 5 kts | 259° |
| 2026-05-05 19:31 | 45.63374 | 8.72376 | 744 ft | 13 kts | 259° |
| 2026-05-05 19:31 | 45.63357 | 8.72256 | 745 ft | 12 kts | 258° |
| 2026-05-05 19:32 | 45.63343 | 8.72153 | 746 ft | 9 kts | 260° |
| 2026-05-05 19:32 | 45.63332 | 8.72073 | 745 ft | 8 kts | 259° |
| 2026-05-05 19:32 | 45.63330 | 8.72057 | 745 ft | 0 kts | 259° |
| 2026-05-05 19:33 | 45.63325 | 8.72025 | 747 ft | 7 kts | 256° |
| 2026-05-05 19:33 | 45.63284 | 8.71974 | 746 ft | 11 kts | 188° |
| 2026-05-05 19:33 | 45.63205 | 8.71991 | 745 ft | 12 kts | 168° |
| 2026-05-05 19:34 | 45.63132 | 8.72011 | 743 ft | 11 kts | 169° |
| 2026-05-05 19:34 | 45.63055 | 8.72032 | 743 ft | 11 kts | 169° |
| 2026-05-05 19:34 | 45.62980 | 8.72052 | 742 ft | 11 kts | 169° |
| 2026-05-05 19:35 | 45.62827 | 8.72093 | 738 ft | 11 kts | 169° |
| 2026-05-05 19:35 | 45.62751 | 8.72115 | 737 ft | 11 kts | 168° |
| 2026-05-05 19:35 | 45.62686 | 8.72083 | 735 ft | 10 kts | 240° |
| 2026-05-05 19:35 | 45.62672 | 8.71991 | 736 ft | 9 kts | 258° |
| 2026-05-05 19:36 | 45.62661 | 8.71913 | 736 ft | 7 kts | 259° |
| 2026-05-05 19:36 | 45.62652 | 8.71847 | 735 ft | 6 kts | 259° |
| 2026-05-05 19:36 | 45.62645 | 8.71792 | 735 ft | 5 kts | 259° |
| 2026-05-05 19:36 | 45.62639 | 8.71748 | 735 ft | 4 kts | 259° |
| 2026-05-05 19:37 | 45.62634 | 8.71714 | 735 ft | 3 kts | 259° |
| 2026-05-05 19:37 | 45.62631 | 8.71690 | 735 ft | 2 kts | 258° |
| 2026-05-05 19:37 | 45.62624 | 8.71671 | 734 ft | 2 kts | 234° |
| 2026-05-05 19:37 | 45.62594 | 8.71662 | 735 ft | 8 kts | 175° |
| 2026-05-05 19:38 | 45.62546 | 8.71675 | 734 ft | 0 kts | 172° |
| 2026-05-05 19:38 | 45.62544 | 8.71675 | 734 ft | 1 kts | 172° |